Time;durP1;ratioP1;P1;durP2;ratioP2;P2;SDS_P1;SDS_P2;PMS_P1;PMS_P2;Temp;Humidity;BMP_temperature;BMP_pressure;BME280_temperature;BME280_humidity;BME280_pressure;Samples;Min_cycle;Max_cycle;Signal;HPM_P1;HPM_P2
2022/03/22 05:01:57;;;;;;;26.50;15.73;;;-0.90;99.90;;;;;;5283013;22;92488;-74
2022/03/22 05:04:23;;;;;;;33.20;16.98;;;-1.00;99.90;;;;;;4976833;28;92712;-74
2022/03/22 05:06:49;;;;;;;27.38;15.50;;;-1.00;99.90;;;;;;4976776;28;89352;-74
2022/03/22 05:09:14;;;;;;;29.02;16.40;;;-1.10;99.90;;;;;;4978534;28;91347;-75
2022/03/22 05:11:40;;;;;;;28.45;15.98;;;-1.10;99.90;;;;;;4978379;28;91021;-75
2022/03/22 05:14:06;;;;;;;29.98;15.90;;;-0.90;99.90;;;;;;4978536;28;89904;-75
2022/03/22 05:16:32;;;;;;;29.67;16.10;;;-0.80;99.90;;;;;;4978615;28;90289;-77
2022/03/22 05:18:58;;;;;;;28.27;16.38;;;-0.80;99.90;;;;;;4978914;28;90143;-77
2022/03/22 05:21:24;;;;;;;53.38;23.35;;;-0.90;99.90;;;;;;4977544;28;89264;-77
2022/03/22 05:23:51;;;;;;;44.50;21.30;;;-0.90;99.90;;;;;;4976911;28;91155;-77
2022/03/22 05:26:17;;;;;;;34.83;18.23;;;-1.00;99.90;;;;;;4978357;28;89379;-77
2022/03/22 05:28:44;;;;;;;29.13;16.08;;;-1.00;99.90;;;;;;4976986;28;91433;-77
2022/03/22 05:31:12;;;;;;;27.05;15.23;;;-1.10;99.90;;;;;;4978035;28;90444;-77
2022/03/22 05:33:39;;;;;;;25.05;15.32;;;-1.00;99.90;;;;;;4978245;28;89811;-77
2022/03/22 05:36:05;;;;;;;25.98;15.27;;;-1.00;99.90;;;;;;4976696;28;89284;-77
2022/03/22 05:38:31;;;;;;;24.38;15.27;;;-0.90;99.90;;;;;;4976719;28;91477;-77
2022/03/22 05:41:02;;;;;;;25.48;14.85;;;-0.70;99.90;;;;;;4975957;28;93018;-77
2022/03/22 05:43:27;;;;;;;25.50;14.75;;;-0.70;99.90;;;;;;4978198;28;90925;-77
2022/03/22 05:45:53;;;;;;;26.50;14.65;;;-0.80;99.90;;;;;;4977957;28;89713;-77
2022/03/22 05:48:19;;;;;;;26.42;15.63;;;-0.60;99.90;;;;;;4977766;28;90346;-77
2022/03/22 05:50:45;;;;;;;23.35;14.38;;;-0.60;99.90;;;;;;4976508;28;90977;-76
2022/03/22 05:53:11;;;;;;;25.35;14.85;;;-0.70;99.90;;;;;;4977791;28;90160;-77
2022/03/22 05:55:37;;;;;;;27.42;14.52;;;-0.70;99.90;;;;;;4977789;28;89360;-76
2022/03/22 05:58:03;;;;;;;25.38;14.55;;;-0.80;99.90;;;;;;4976852;28;91544;-77
2022/03/22 06:00:29;;;;;;;26.13;15.38;;;-0.80;99.90;;;;;;4977249;28;89431;-77
2022/03/22 06:02:55;;;;;;;26.48;15.35;;;-0.80;99.90;;;;;;4977486;28;90087;-76
2022/03/22 06:05:21;;;;;;;31.77;16.60;;;-0.80;99.90;;;;;;4977462;28;90160;-76
2022/03/22 06:07:47;;;;;;;29.73;16.52;;;-0.80;99.90;;;;;;4977389;28;90273;-77
2022/03/22 06:10:13;;;;;;;22.98;14.57;;;-0.70;99.90;;;;;;4976150;28;90968;-79
2022/03/22 06:12:41;;;;;;;28.48;15.52;;;-0.70;99.90;;;;;;4977884;28;89190;-77
2022/03/22 06:15:16;;;;;;;27.10;14.85;;;-0.60;99.90;;;;;;4976210;28;89452;-76
2022/03/22 06:18:04;;;;;;;26.55;15.18;;;-0.60;99.90;;;;;;4975956;28;90765;-76
2022/03/22 06:20:31;;;;;;;26.92;15.90;;;-0.50;99.90;;;;;;4975948;28;91397;-77
2022/03/22 06:22:58;;;;;;;23.15;14.23;;;-0.30;99.90;;;;;;4978940;28;90042;-77
2022/03/22 06:25:25;;;;;;;24.60;14.50;;;-0.30;99.90;;;;;;4977438;28;89221;-76
2022/03/22 06:27:52;;;;;;;24.73;14.15;;;-0.20;99.90;;;;;;4977247;28;89330;-76
2022/03/22 06:30:19;;;;;;;23.73;14.25;;;-0.10;99.90;;;;;;4976713;28;90242;-77
2022/03/22 06:32:50;;;;;;;24.50;15.27;;;0.00;99.90;;;;;;4977304;28;90885;-77
2022/03/22 06:35:21;;;;;;;29.27;15.68;;;0.00;99.90;;;;;;4977075;28;89143;-77
2022/03/22 06:37:48;;;;;;;36.05;19.23;;;0.20;99.90;;;;;;4977501;28;89156;-77
2022/03/22 06:40:16;;;;;;;38.03;18.92;;;0.30;99.90;;;;;;4977005;28;91839;-77
2022/03/22 06:42:42;;;;;;;33.80;18.55;;;0.50;99.90;;;;;;4980483;28;89259;-79
2022/03/22 06:45:10;;;;;;;37.25;17.83;;;0.60;99.90;;;;;;4978168;28;89343;-77
2022/03/22 06:47:37;;;;;;;29.88;17.38;;;0.60;99.90;;;;;;4976211;28;92817;-77
2022/03/22 06:50:03;;;;;;;31.27;16.90;;;0.70;99.90;;;;;;4977148;28;90416;-77
2022/03/22 06:52:29;;;;;;;28.60;16.70;;;0.80;99.90;;;;;;4975617;28;92153;-77
2022/03/22 06:54:55;;;;;;;35.42;17.05;;;0.80;99.90;;;;;;4977400;28;90160;-77
2022/03/22 06:57:21;;;;;;;32.38;17.77;;;0.90;99.90;;;;;;4977012;28;89746;-77
2022/03/22 06:59:46;;;;;;;33.10;17.25;;;1.00;99.90;;;;;;4975468;28;92429;-77
2022/03/22 07:02:12;;;;;;;33.97;18.73;;;1.10;99.90;;;;;;4977219;28;89327;-77
2022/03/22 07:04:37;;;;;;;30.45;16.02;;;1.20;99.90;;;;;;4978367;28;89230;-77
2022/03/22 07:07:03;;;;;;;26.35;16.50;;;1.30;99.90;;;;;;4978062;28;89251;-77
2022/03/22 07:09:28;;;;;;;29.17;17.00;;;1.40;99.90;;;;;;4977800;28;90198;-77
2022/03/22 07:11:56;;;;;;;26.35;16.67;;;1.50;99.90;;;;;;4977830;28;89859;-77
2022/03/22 07:14:24;;;;;;;28.50;16.30;;;1.60;99.90;;;;;;4978138;28;89330;-77
2022/03/22 07:16:50;;;;;;;27.58;17.25;;;1.70;99.90;;;;;;4976034;28;92894;-77
2022/03/22 07:19:20;;;;;;;28.88;17.00;;;1.90;99.90;;;;;;4977804;28;91042;-77
2022/03/22 07:21:46;;;;;;;27.60;17.17;;;2.00;99.90;;;;;;4978138;28;91282;-77
2022/03/22 07:24:13;;;;;;;27.95;16.40;;;2.10;99.90;;;;;;4977670;28;89235;-77
2022/03/22 07:26:40;;;;;;;29.02;15.77;;;2.40;99.90;;;;;;4975578;28;93193;-77
2022/03/22 07:29:07;;;;;;;25.80;16.23;;;2.50;99.90;;;;;;4976397;28;92774;-77
2022/03/22 07:31:38;;;;;;;25.95;14.85;;;2.60;99.90;;;;;;4977873;28;89808;-77
2022/03/22 07:34:06;;;;;;;25.48;15.30;;;2.70;99.90;;;;;;4977066;28;89567;-77
2022/03/22 07:36:32;;;;;;;24.80;15.20;;;2.90;99.90;;;;;;4978645;28;89925;-77
2022/03/22 07:38:58;;;;;;;26.95;15.07;;;3.00;99.90;;;;;;4978462;28;90128;-77
2022/03/22 07:41:24;;;;;;;21.17;14.85;;;3.20;99.90;;;;;;4978887;28;89224;-77
2022/03/22 07:43:49;;;;;;;25.70;14.73;;;3.40;99.90;;;;;;4977080;28;90328;-77
2022/03/22 07:46:15;;;;;;;26.02;15.02;;;3.50;99.90;;;;;;4979040;28;92877;-78
2022/03/22 07:48:40;;;;;;;23.80;14.75;;;3.70;99.90;;;;;;4982702;28;91034;-76
2022/03/22 07:54:06;;;;;;;25.35;14.95;;;4.00;99.90;;;;;;4938201;28;89314;-78
2022/03/22 07:56:32;;;;;;;24.20;15.18;;;4.20;99.90;;;;;;4972604;28;90754;-78
2022/03/22 07:58:58;;;;;;;21.27;14.43;;;4.30;99.90;;;;;;4980009;28;91851;-78
2022/03/22 08:01:24;;;;;;;22.15;15.05;;;4.40;99.90;;;;;;4980991;28;89791;-77
2022/03/22 08:03:50;;;;;;;23.85;13.85;;;4.60;99.90;;;;;;4979588;28;89260;-71
2022/03/22 08:06:16;;;;;;;24.50;14.77;;;4.70;99.90;;;;;;4978760;28;89422;-72
2022/03/22 08:08:44;;;;;;;21.10;13.85;;;4.90;99.90;;;;;;4978977;28;92091;-72
2022/03/22 08:11:10;;;;;;;24.65;14.98;;;5.00;99.90;;;;;;4978975;28;90773;-72
2022/03/22 08:13:37;;;;;;;23.15;14.45;;;5.20;99.90;;;;;;4979660;28;89517;-72
2022/03/22 08:16:04;;;;;;;30.65;15.43;;;5.30;99.90;;;;;;4979216;28;89357;-71
2022/03/22 08:18:29;;;;;;;24.73;14.30;;;5.50;99.90;;;;;;4979623;28;90508;-76
2022/03/22 08:20:55;;;;;;;20.67;14.23;;;5.60;99.90;;;;;;4979079;28;89771;-75
2022/03/22 08:23:21;;;;;;;21.55;14.30;;;5.80;99.90;;;;;;4979997;28;89350;-75
2022/03/22 08:25:49;;;;;;;23.83;14.07;;;6.00;99.90;;;;;;4977548;28;92206;-78
2022/03/22 08:28:15;;;;;;;21.23;13.80;;;6.20;99.90;;;;;;4976235;28;91946;-77
2022/03/22 08:30:42;;;;;;;18.90;13.90;;;6.40;99.90;;;;;;4979536;28;89225;-77
2022/03/22 08:33:09;;;;;;;23.48;14.00;;;6.50;98.90;;;;;;4977718;28;90280;-77
2022/03/22 08:35:46;;;;;;;25.55;14.13;;;6.60;98.70;;;;;;4978671;28;92959;-77
2022/03/22 08:38:14;;;;;;;24.80;13.38;;;6.80;98.80;;;;;;4979291;28;89160;-77
2022/03/22 08:40:40;;;;;;;23.88;13.18;;;6.90;98.60;;;;;;4977524;28;92702;-76
2022/03/22 08:43:07;;;;;;;32.20;14.65;;;7.20;98.20;;;;;;4979072;28;89451;-76
2022/03/22 08:45:34;;;;;;;21.17;14.43;;;7.30;97.10;;;;;;4977609;28;92167;-78
2022/03/22 08:48:02;;;;;;;22.80;14.27;;;7.50;98.30;;;;;;4978093;28;91964;-79
2022/03/22 08:50:28;;;;;;;24.73;14.80;;;7.60;97.50;;;;;;4977642;28;93045;-78
2022/03/22 08:52:56;;;;;;;25.08;14.00;;;7.80;95.50;;;;;;4977088;28;89266;-77
2022/03/22 08:55:23;;;;;;;25.23;13.75;;;7.90;95.30;;;;;;4977475;28;91990;-77
2022/03/22 08:57:49;;;;;;;22.02;14.02;;;8.00;95.00;;;;;;4977881;28;90980;-77
2022/03/22 09:00:17;;;;;;;27.52;13.70;;;8.10;94.40;;;;;;4978467;28;92100;-77
2022/03/22 09:02:45;;;;;;;22.23;13.05;;;8.30;94.50;;;;;;4979200;28;89205;-78
2022/03/22 09:07:58;;;;;;;25.65;13.32;;;8.70;92.50;;;;;;4959611;28;89724;-74
2022/03/22 09:10:25;;;;;;;20.58;12.70;;;8.90;92.30;;;;;;4958974;28;90294;-75
2022/03/22 09:12:50;;;;;;;22.45;13.50;;;9.00;91.80;;;;;;4959271;28;89228;-76
2022/03/22 09:15:18;;;;;;;18.38;12.48;;;9.10;91.20;;;;;;4959371;28;89888;-76
2022/03/22 09:17:43;;;;;;;24.77;14.07;;;9.30;92.10;;;;;;4958760;28;90377;-77
2022/03/22 09:20:13;;;;;;;22.40;13.30;;;9.40;90.10;;;;;;4956901;28;91844;-77
2022/03/22 09:22:39;;;;;;;18.20;12.68;;;9.40;88.50;;;;;;4958855;28;90253;-78
2022/03/22 09:25:07;;;;;;;18.02;11.65;;;9.50;89.00;;;;;;4957462;28;92290;-78
2022/03/22 09:27:32;;;;;;;19.63;13.35;;;9.70;88.90;;;;;;4959112;28;93220;-78
2022/03/22 09:29:58;;;;;;;19.92;12.52;;;9.90;90.20;;;;;;4975164;28;92815;-82
2022/03/22 09:32:24;;;;;;;18.50;12.57;;;10.00;87.50;;;;;;4974112;28;89275;-77
2022/03/22 09:34:50;;;;;;;21.90;13.35;;;10.00;84.90;;;;;;4969740;28;89213;-77
2022/03/22 09:37:16;;;;;;;21.83;12.77;;;10.00;87.70;;;;;;4976365;28;92514;-78
2022/03/22 09:39:43;;;;;;;20.27;12.15;;;10.10;89.00;;;;;;4978650;28;89877;-77
2022/03/22 09:42:09;;;;;;;20.65;12.13;;;10.20;85.80;;;;;;4977496;28;89164;-77
2022/03/22 09:44:35;;;;;;;18.27;12.05;;;10.30;87.20;;;;;;4976725;28;91995;-77
2022/03/22 09:47:03;;;;;;;21.13;12.55;;;10.60;85.60;;;;;;4975601;28;92626;-76
2022/03/22 09:49:29;;;;;;;20.90;12.80;;;10.70;83.00;;;;;;4977956;28;90571;-76
2022/03/22 09:51:55;;;;;;;20.35;12.73;;;10.80;84.10;;;;;;4978273;28;89184;-76
2022/03/22 09:54:25;;;;;;;22.25;11.93;;;10.80;81.70;;;;;;4978117;28;91204;-76
2022/03/22 09:56:52;;;;;;;20.75;12.05;;;10.90;81.00;;;;;;4978259;28;89509;-75
2022/03/22 09:59:17;;;;;;;18.35;12.00;;;11.00;80.40;;;;;;4978124;28;89602;-75
2022/03/22 10:01:45;;;;;;;18.33;11.98;;;11.10;81.30;;;;;;4977260;28;89797;-77
2022/03/22 10:04:13;;;;;;;16.25;11.40;;;11.20;80.80;;;;;;4978261;28;89586;-76
2022/03/22 10:06:50;;;;;;;15.85;12.10;;;11.30;79.20;;;;;;4976259;28;91717;-77
2022/03/22 10:09:31;;;;;;;20.10;12.57;;;11.40;78.20;;;;;;4977787;28;89887;-76
2022/03/22 10:11:57;;;;;;;17.25;11.35;;;11.50;78.30;;;;;;4977582;28;90252;-77
2022/03/22 10:14:40;;;;;;;19.13;11.68;;;11.60;79.60;;;;;;4974913;28;90872;-77
2022/03/22 10:17:15;;;;;;;16.38;11.40;;;11.70;76.90;;;;;;4977472;28;90363;-76
2022/03/22 10:19:49;;;;;;;16.58;11.95;;;11.90;74.70;;;;;;4976140;28;92872;-76
2022/03/22 10:22:16;;;;;;;14.88;11.07;;;12.10;73.90;;;;;;4973028;28;89238;-76
2022/03/22 10:24:47;;;;;;;17.02;12.27;;;12.20;73.70;;;;;;4974066;28;92577;-76
2022/03/22 10:27:34;;;;;;;16.33;10.80;;;12.30;72.10;;;;;;4975787;28;92295;-76
2022/03/22 10:30:05;;;;;;;16.15;11.60;;;12.40;73.20;;;;;;4976308;28;93059;-76
2022/03/22 10:32:32;;;;;;;15.88;11.40;;;12.40;71.90;;;;;;4977546;28;89963;-76
2022/03/22 10:35:12;;;;;;;16.33;11.88;;;12.50;72.40;;;;;;4976850;28;89591;-76
2022/03/22 10:37:41;;;;;;;19.80;12.20;;;12.80;72.50;;;;;;4975317;28;94094;-77
2022/03/22 10:40:28;;;;;;;17.30;11.50;;;12.90;69.70;;;;;;4975977;28;92616;-76
2022/03/22 10:43:06;;;;;;;18.50;12.05;;;12.80;67.90;;;;;;4976113;28;89613;-76
2022/03/22 10:46:01;;;;;;;16.73;11.95;;;12.90;69.10;;;;;;4977314;28;90270;-76
2022/03/22 10:48:30;;;;;;;16.02;12.00;;;12.90;68.10;;;;;;4967942;28;90941;-76
2022/03/22 10:50:58;;;;;;;16.60;11.90;;;13.00;69.90;;;;;;4977538;28;89852;-77
2022/03/22 10:53:24;;;;;;;16.50;11.55;;;13.10;68.70;;;;;;4978306;28;89116;-76
2022/03/22 10:55:50;;;;;;;17.20;11.95;;;13.10;67.40;;;;;;4977437;28;89103;-76
2022/03/22 10:58:21;;;;;;;17.73;12.00;;;13.30;68.20;;;;;;4977240;28;89280;-76
2022/03/22 11:00:48;;;;;;;15.07;12.05;;;13.50;66.90;;;;;;4976736;28;90251;-77
2022/03/22 11:03:17;;;;;;;18.83;12.18;;;13.60;67.20;;;;;;4977074;28;90220;-76
2022/03/22 11:05:48;;;;;;;17.17;12.05;;;13.50;67.30;;;;;;4975348;28;92769;-77
2022/03/22 11:08:18;;;;;;;22.10;12.38;;;13.60;67.10;;;;;;4976932;28;91110;-76
2022/03/22 11:10:44;;;;;;;18.58;12.07;;;13.60;68.30;;;;;;4976727;28;90015;-76
2022/03/22 11:13:10;;;;;;;18.33;12.75;;;13.60;67.80;;;;;;4977235;28;89279;-77
2022/03/22 11:15:45;;;;;;;20.05;12.95;;;13.60;67.50;;;;;;5020001;22;89901;-76
2022/03/22 11:18:12;;;;;;;15.43;11.88;;;13.80;68.00;;;;;;4996454;28;90060;-76
2022/03/22 11:20:49;;;;;;;21.20;12.85;;;14.00;65.60;;;;;;4998681;28;89670;-74
2022/03/22 11:23:19;;;;;;;18.67;12.70;;;14.20;66.40;;;;;;5000350;28;89164;-74
2022/03/22 11:25:44;;;;;;;16.98;12.82;;;14.10;65.50;;;;;;4999404;28;89786;-74
2022/03/22 11:28:12;;;;;;;20.98;12.70;;;14.30;66.50;;;;;;4997773;28;93901;-74
2022/03/22 11:30:40;;;;;;;18.35;12.73;;;14.60;65.30;;;;;;4998564;28;92627;-74
2022/03/22 11:35:52;;;;;;;22.70;12.93;;;14.60;63.30;;;;;;4999671;28;89182;-76
2022/03/22 11:38:36;;;;;;;17.15;12.75;;;14.60;63.90;;;;;;4999630;28;89378;-76
2022/03/22 11:43:48;;;;;;;16.33;12.43;;;14.70;63.40;;;;;;4999951;28;89224;-76
2022/03/22 11:46:14;;;;;;;17.58;13.02;;;14.90;63.30;;;;;;4999387;28;89706;-76
2022/03/22 11:48:39;;;;;;;17.67;13.25;;;14.90;63.60;;;;;;4999196;28;89340;-76
2022/03/22 11:51:07;;;;;;;19.40;13.50;;;15.00;62.80;;;;;;4999755;28;89920;-76
2022/03/22 11:53:48;;;;;;;17.23;12.48;;;15.10;63.20;;;;;;4999633;28;90593;-76
2022/03/22 11:56:14;;;;;;;16.70;12.73;;;15.20;61.90;;;;;;4998990;28;89473;-78
2022/03/22 11:58:51;;;;;;;15.75;11.80;;;15.30;61.70;;;;;;4999774;28;89510;-76
2022/03/22 12:01:17;;;;;;;19.52;12.60;;;15.50;62.70;;;;;;4998143;28;93644;-76
2022/03/22 12:03:51;;;;;;;16.40;12.90;;;15.70;61.70;;;;;;5000628;28;89282;-77
2022/03/22 12:06:17;;;;;;;16.60;12.57;;;15.80;63.20;;;;;;5001366;28;90386;-77
2022/03/22 12:08:43;;;;;;;19.25;12.90;;;16.10;59.60;;;;;;5001813;28;89255;-82
2022/03/22 12:11:16;;;;;;;17.10;13.52;;;15.90;61.70;;;;;;5000564;28;89047;-78
2022/03/22 12:13:49;;;;;;;18.30;12.38;;;15.80;61.60;;;;;;5000673;28;89472;-77
2022/03/22 12:16:15;;;;;;;20.88;13.48;;;15.90;60.80;;;;;;4999022;28;89660;-76
2022/03/22 12:18:41;;;;;;;22.75;13.45;;;16.00;60.00;;;;;;4999757;28;90995;-76
2022/03/22 12:21:18;;;;;;;16.70;12.63;;;16.10;59.30;;;;;;4998324;28;93089;-77
2022/03/22 12:23:45;;;;;;;19.48;13.10;;;16.40;59.90;;;;;;4998777;28;89295;-77
2022/03/22 12:26:11;;;;;;;17.17;13.52;;;16.60;59.10;;;;;;4997758;28;92644;-77
2022/03/22 12:28:51;;;;;;;17.73;13.25;;;16.70;59.50;;;;;;4998236;28;90638;-76
2022/03/22 12:31:21;;;;;;;18.70;13.60;;;16.90;61.30;;;;;;4996885;28;91328;-76
2022/03/22 12:33:50;;;;;;;17.23;13.70;;;16.80;59.60;;;;;;4999376;28;89121;-76
2022/03/22 12:36:19;;;;;;;17.60;13.88;;;16.80;59.70;;;;;;4998615;28;89793;-75
2022/03/22 12:38:45;;;;;;;17.65;12.63;;;17.20;57.20;;;;;;4999531;28;89856;-76
2022/03/22 12:41:10;;;;;;;20.52;14.60;;;17.40;57.10;;;;;;4999345;28;90207;-76
2022/03/22 12:43:36;;;;;;;18.42;13.30;;;17.50;58.40;;;;;;4998860;28;90191;-75
2022/03/22 12:46:02;;;;;;;17.05;13.30;;;17.60;56.50;;;;;;4997076;28;91344;-79
2022/03/22 12:48:30;;;;;;;19.00;14.05;;;17.50;57.40;;;;;;4998914;28;90037;-77
2022/03/22 12:50:56;;;;;;;21.75;14.30;;;17.50;56.80;;;;;;4998928;28;89303;-77
2022/03/22 12:53:22;;;;;;;20.48;13.75;;;17.70;57.30;;;;;;4997668;28;89515;-78
2022/03/22 12:55:48;;;;;;;19.45;14.52;;;17.80;57.30;;;;;;4998562;28;89613;-78
2022/03/22 12:58:14;;;;;;;20.20;13.68;;;18.10;56.40;;;;;;4997716;28;92044;-78
2022/03/22 13:00:41;;;;;;;20.30;13.63;;;18.40;59.20;;;;;;4999438;28;89625;-76
2022/03/22 13:03:12;;;;;;;17.75;13.65;;;18.60;58.10;;;;;;4997353;28;89309;-76
2022/03/22 13:05:51;;;;;;;20.48;14.25;;;18.60;57.80;;;;;;4998078;28;89990;-76
2022/03/22 13:08:26;;;;;;;21.63;14.05;;;18.90;55.50;;;;;;4998604;28;91747;-76
2022/03/22 13:16:31;;;;;;;24.70;15.02;;;18.50;54.80;;;;;;4999108;28;89420;-74
2022/03/22 13:18:58;;;;;;;17.60;14.20;;;18.60;56.60;;;;;;4998903;28;89338;-75
2022/03/22 13:21:33;;;;;;;21.05;14.32;;;18.90;56.00;;;;;;4999267;28;89690;-75
2022/03/22 13:24:08;;;;;;;20.17;13.68;;;18.80;54.70;;;;;;4999032;28;89156;-75
2022/03/22 13:26:38;;;;;;;19.30;13.68;;;18.80;57.10;;;;;;4998549;28;89702;-73
2022/03/22 13:29:19;;;;;;;19.77;14.35;;;18.90;54.00;;;;;;4997029;28;89987;-76
2022/03/22 13:31:58;;;;;;;18.45;14.05;;;18.90;54.00;;;;;;4998237;28;89630;-76
2022/03/22 13:34:28;;;;;;;21.15;14.77;;;19.20;54.00;;;;;;4996383;28;90098;-74
2022/03/22 13:37:13;;;;;;;20.23;13.63;;;19.10;57.40;;;;;;4995867;28;92218;-74
2022/03/22 13:39:41;;;;;;;18.55;13.98;;;18.90;55.90;;;;;;4998366;28;89334;-74
2022/03/22 13:42:15;;;;;;;19.40;14.15;;;19.10;54.60;;;;;;4997882;28;89852;-73
2022/03/22 13:44:45;;;;;;;21.88;13.98;;;19.30;54.20;;;;;;4996563;28;89288;-73
2022/03/22 13:47:10;;;;;;;23.52;14.40;;;19.30;54.90;;;;;;4997731;28;89196;-75
2022/03/22 13:49:37;;;;;;;19.85;14.07;;;19.50;54.20;;;;;;4997935;28;89328;-73
2022/03/22 13:52:03;;;;;;;19.60;14.10;;;19.50;53.20;;;;;;4998320;28;89158;-74
2022/03/22 13:54:29;;;;;;;19.58;14.77;;;19.80;54.80;;;;;;4995502;28;89830;-74
2022/03/22 13:57:08;;;;;;;21.08;14.02;;;20.00;51.60;;;;;;4996333;28;89515;-74
2022/03/22 13:59:41;;;;;;;18.88;13.68;;;19.90;53.50;;;;;;4995382;28;94250;-74
2022/03/22 14:02:08;;;;;;;19.75;14.30;;;20.00;53.60;;;;;;4997332;28;89491;-74
2022/03/22 14:04:34;;;;;;;20.48;14.55;;;20.00;56.20;;;;;;4996426;28;89345;-74
2022/03/22 14:07:01;;;;;;;21.92;14.02;;;20.20;52.00;;;;;;4992276;28;92597;-74
2022/03/22 14:09:27;;;;;;;21.95;14.20;;;20.20;52.80;;;;;;4983973;28;90151;-74
2022/03/22 14:11:52;;;;;;;18.90;14.20;;;20.30;52.50;;;;;;4995089;28;96185;-73
2022/03/22 14:14:18;;;;;;;20.08;14.38;;;20.30;50.80;;;;;;4997757;28;89399;-76
2022/03/22 14:16:44;;;;;;;20.52;14.07;;;20.30;51.60;;;;;;4994912;28;90963;-74
2022/03/22 14:19:12;;;;;;;17.65;13.55;;;20.40;50.50;;;;;;4996127;28;91713;-75
2022/03/22 14:21:39;;;;;;;19.25;14.05;;;20.60;50.60;;;;;;4997134;28;89124;-74
2022/03/22 14:24:05;;;;;;;18.67;13.18;;;21.70;49.90;;;;;;4996934;28;90170;-74
2022/03/22 14:26:31;;;;;;;21.13;13.75;;;22.30;50.20;;;;;;4980761;28;90842;-74
2022/03/22 14:28:57;;;;;;;19.25;13.45;;;22.60;47.00;;;;;;4994030;28;90873;-74
2022/03/22 14:31:23;;;;;;;17.73;13.40;;;23.60;46.20;;;;;;4996134;28;91549;-74
2022/03/22 14:33:48;;;;;;;17.67;12.90;;;24.30;43.00;;;;;;4996228;28;89359;-74
2022/03/22 14:36:14;;;;;;;15.50;12.85;;;24.70;43.50;;;;;;4991487;28;92881;-74
2022/03/22 14:38:39;;;;;;;18.38;12.20;;;24.40;43.90;;;;;;4995119;28;89339;-75
2022/03/22 14:41:22;;;;;;;16.75;12.30;;;24.60;43.10;;;;;;4996653;28;88909;-76
2022/03/22 14:43:48;;;;;;;16.52;12.70;;;25.70;41.90;;;;;;4997288;28;89184;-75
2022/03/22 14:46:14;;;;;;;14.05;12.05;;;26.40;40.00;;;;;;4996307;28;89220;-76
2022/03/22 14:48:40;;;;;;;18.83;12.68;;;26.70;42.30;;;;;;4981534;28;94070;-75
2022/03/22 14:51:06;;;;;;;15.05;12.02;;;26.60;40.70;;;;;;4977628;28;91560;-76
2022/03/22 14:59:00;;;;;;;14.02;11.63;;;26.30;37.40;;;;;;4980894;28;89588;-75
2022/03/22 15:01:31;;;;;;;16.17;11.18;;;26.90;37.00;;;;;;4977064;28;90156;-75
2022/03/22 15:04:00;;;;;;;12.75;10.77;;;27.00;38.40;;;;;;4977178;28;89201;-75
2022/03/22 15:06:27;;;;;;;17.70;11.55;;;26.30;36.00;;;;;;4976203;28;89842;-75
2022/03/22 15:08:53;;;;;;;15.88;11.15;;;26.50;37.90;;;;;;4989906;28;91992;-75
2022/03/22 15:11:21;;;;;;;13.45;10.63;;;28.20;35.80;;;;;;4995239;28;89631;-75
2022/03/22 15:13:49;;;;;;;14.15;10.30;;;28.90;35.40;;;;;;4975811;28;90243;-76
2022/03/22 15:16:16;;;;;;;12.07;9.45;;;28.80;34.60;;;;;;4974606;28;91619;-75
2022/03/22 15:18:42;;;;;;;11.23;10.07;;;30.00;33.00;;;;;;4990321;28;90103;-76
2022/03/22 15:21:09;;;;;;;16.55;10.80;;;29.90;33.20;;;;;;4995804;28;92098;-76
2022/03/22 15:23:35;;;;;;;14.20;10.05;;;29.50;32.40;;;;;;4996930;28;89233;-76
2022/03/22 15:26:02;;;;;;;10.90;9.27;;;29.00;33.00;;;;;;4994977;28;93095;-76
2022/03/22 15:28:28;;;;;;;14.85;8.90;;;28.50;32.10;;;;;;4994499;28;90056;-77
2022/03/22 15:30:54;;;;;;;11.00;9.20;;;29.00;31.30;;;;;;4985722;28;89123;-76
2022/03/22 15:33:20;;;;;;;11.30;9.07;;;28.50;31.60;;;;;;4997891;28;89364;-77
2022/03/22 15:35:47;;;;;;;16.75;10.65;;;28.40;31.70;;;;;;4981651;28;89307;-75
2022/03/22 15:38:14;;;;;;;10.80;9.07;;;28.90;33.40;;;;;;4974870;28;93959;-77
2022/03/22 15:40:41;;;;;;;12.98;9.15;;;28.80;32.20;;;;;;4996130;28;89472;-76
2022/03/22 15:43:07;;;;;;;11.50;8.77;;;28.10;32.70;;;;;;4996687;28;89327;-76
2022/03/22 15:45:34;;;;;;;10.48;8.63;;;27.50;32.50;;;;;;4996280;28;89187;-76
2022/03/22 15:47:59;;;;;;;11.30;8.75;;;27.90;32.40;;;;;;4995366;28;92413;-76
2022/03/22 15:50:28;;;;;;;9.70;8.55;;;28.10;31.20;;;;;;4995535;28;92515;-76
2022/03/22 15:53:00;;;;;;;10.52;8.20;;;28.00;31.10;;;;;;4997873;28;89232;-76
2022/03/22 15:55:29;;;;;;;14.05;7.60;;;27.80;30.60;;;;;;4995589;28;91480;-76
2022/03/22 15:57:56;;;;;;;11.27;7.60;;;28.20;31.30;;;;;;4994806;28;91296;-76
2022/03/22 16:00:26;;;;;;;10.77;7.50;;;28.90;29.10;;;;;;4996912;28;89289;-76
2022/03/22 16:02:51;;;;;;;10.73;7.38;;;28.70;30.50;;;;;;4996352;28;90426;-76
2022/03/22 16:05:17;;;;;;;9.98;7.65;;;28.40;30.70;;;;;;4996677;28;89324;-75
2022/03/22 16:07:43;;;;;;;10.02;7.25;;;28.20;30.20;;;;;;4994052;28;89311;-76
2022/03/22 16:10:10;;;;;;;12.27;6.82;;;27.90;31.10;;;;;;4987085;28;92367;-76
2022/03/22 16:12:35;;;;;;;8.93;6.65;;;27.10;31.00;;;;;;4996313;28;89222;-76
2022/03/22 16:15:02;;;;;;;10.88;7.15;;;25.80;32.70;;;;;;4998862;28;91661;-75
2022/03/22 16:17:29;;;;;;;10.18;7.20;;;25.20;32.30;;;;;;4998152;28;91789;-75
2022/03/22 16:19:55;;;;;;;8.90;6.30;;;25.00;33.00;;;;;;4998268;28;91467;-75
2022/03/22 16:22:21;;;;;;;10.70;6.72;;;24.30;35.40;;;;;;4996879;28;89224;-75
2022/03/22 16:24:52;;;;;;;10.13;6.68;;;24.10;34.00;;;;;;4999487;28;89913;-75
2022/03/22 16:27:18;;;;;;;9.13;6.75;;;23.50;33.80;;;;;;4980218;28;91460;-75
2022/03/22 16:29:45;;;;;;;10.32;6.38;;;22.90;34.30;;;;;;4997777;28;93685;-75
2022/03/22 16:32:10;;;;;;;8.10;6.13;;;21.90;36.00;;;;;;4998473;28;89334;-75
2022/03/22 16:37:20;;;;;;;10.30;6.72;;;19.80;40.90;;;;;;4979248;28;89471;-76
2022/03/22 16:39:45;;;;;;;10.80;6.60;;;18.80;41.50;;;;;;4978576;28;97330;-79
2022/03/22 16:42:15;;;;;;;10.80;7.10;;;18.20;44.30;;;;;;4997892;28;89463;-76
2022/03/22 16:44:43;;;;;;;10.27;7.13;;;17.70;43.80;;;;;;4996610;28;90220;-77
2022/03/22 16:47:11;;;;;;;12.48;7.03;;;17.30;45.60;;;;;;4978715;28;89307;-75
2022/03/22 16:49:40;;;;;;;10.93;7.18;;;16.90;46.90;;;;;;4979174;28;89496;-75
2022/03/22 16:52:07;;;;;;;8.88;7.18;;;16.60;46.90;;;;;;4977609;28;90219;-75
2022/03/22 16:54:33;;;;;;;9.57;6.95;;;16.30;45.90;;;;;;4979962;28;89856;-75
2022/03/22 16:57:00;;;;;;;8.68;6.65;;;16.10;46.30;;;;;;4998578;28;90587;-75
2022/03/22 16:59:26;;;;;;;13.82;7.18;;;16.00;46.20;;;;;;4998889;28;89398;-74
2022/03/22 17:01:53;;;;;;;9.98;6.90;;;15.90;46.80;;;;;;4997751;28;89435;-75
2022/03/22 17:04:22;;;;;;;11.52;8.38;;;15.70;48.40;;;;;;4984376;28;89341;-78
2022/03/22 17:06:48;;;;;;;16.02;7.50;;;15.60;47.40;;;;;;4993499;28;92205;-75
2022/03/22 17:09:14;;;;;;;11.43;7.20;;;15.30;49.00;;;;;;4998793;28;90185;-76
2022/03/22 17:11:40;;;;;;;9.88;6.72;;;15.10;50.80;;;;;;4999192;28;89371;-78
2022/03/22 17:14:06;;;;;;;11.23;7.03;;;14.80;53.30;;;;;;4999693;28;89785;-76
2022/03/22 17:16:37;;;;;;;12.32;6.82;;;14.50;52.00;;;;;;5015720;22;93941;-77
2022/03/22 17:19:07;;;;;;;10.90;7.25;;;14.30;52.70;;;;;;4999555;28;92837;-78
2022/03/22 17:21:34;;;;;;;12.00;7.03;;;14.10;53.60;;;;;;4999674;28;89316;-80
2022/03/22 17:24:01;;;;;;;10.90;7.07;;;13.90;54.60;;;;;;5001052;28;89278;-79
2022/03/22 17:26:27;;;;;;;9.93;7.47;;;13.60;55.70;;;;;;4999645;28;92711;-77
2022/03/22 17:28:53;;;;;;;18.20;9.60;;;13.30;56.50;;;;;;5001379;28;89816;-79
2022/03/22 17:31:20;;;;;;;14.20;8.52;;;13.00;57.60;;;;;;4992816;28;89274;-77
2022/03/22 17:33:49;;;;;;;17.17;9.45;;;12.80;58.50;;;;;;4980288;28;92628;-77
2022/03/22 17:36:16;;;;;;;14.52;9.45;;;12.50;57.80;;;;;;4978529;28;90435;-78
2022/03/22 17:38:43;;;;;;;17.60;9.45;;;12.30;59.40;;;;;;4983591;28;91949;-78
2022/03/22 17:41:12;;;;;;;16.65;9.68;;;12.10;60.20;;;;;;4992030;28;90237;-78
2022/03/22 17:43:41;;;;;;;12.95;8.02;;;11.80;62.10;;;;;;4993819;28;89402;-77
2022/03/22 17:46:08;;;;;;;10.13;7.55;;;11.50;62.70;;;;;;4979362;28;89692;-79
2022/03/22 17:48:34;;;;;;;11.80;6.80;;;11.40;64.50;;;;;;4981841;28;91380;-80
2022/03/22 17:51:00;;;;;;;10.38;6.93;;;11.20;64.70;;;;;;4980073;28;89307;-80
2022/03/22 17:53:27;;;;;;;13.82;7.00;;;11.00;65.90;;;;;;4991572;28;91727;-78
2022/03/22 17:55:53;;;;;;;11.25;6.57;;;10.80;65.80;;;;;;4998778;28;89377;-78
2022/03/22 17:58:19;;;;;;;9.75;6.85;;;10.60;66.60;;;;;;4999590;28;90141;-78
2022/03/22 18:00:46;;;;;;;11.40;6.97;;;10.50;67.60;;;;;;4997630;28;89554;-79